sensor_id;sensor_type;location;lat;lon;timestamp;temperature;humidity
18880;DHT22;9572;52.378;13.404;2024-03-29T00:01:50;9.40;99.90
18880;DHT22;9572;52.378;13.404;2024-03-29T00:04:16;9.30;99.90
18880;DHT22;9572;52.378;13.404;2024-03-29T00:06:42;9.20;99.90
18880;DHT22;9572;52.378;13.404;2024-03-29T00:09:08;9.10;99.90
18880;DHT22;9572;52.378;13.404;2024-03-29T00:11:34;9.10;99.90
18880;DHT22;9572;52.378;13.404;2024-03-29T00:14:01;9.00;99.90
18880;DHT22;9572;52.378;13.404;2024-03-29T00:16:27;8.90;99.90
18880;DHT22;9572;52.378;13.404;2024-03-29T00:18:52;8.90;99.90
18880;DHT22;9572;52.378;13.404;2024-03-29T00:21:18;8.90;99.90
18880;DHT22;9572;52.378;13.404;2024-03-29T00:23:44;8.90;99.90
18880;DHT22;9572;52.378;13.404;2024-03-29T00:26:10;8.70;99.90
18880;DHT22;9572;52.378;13.404;2024-03-29T00:28:36;8.70;99.90
18880;DHT22;9572;52.378;13.404;2024-03-29T00:31:03;8.60;99.90
18880;DHT22;9572;52.378;13.404;2024-03-29T00:33:29;8.60;99.90
18880;DHT22;9572;52.378;13.404;2024-03-29T00:35:55;8.50;99.90
18880;DHT22;9572;52.378;13.404;2024-03-29T00:38:21;8.40;99.90
18880;DHT22;9572;52.378;13.404;2024-03-29T00:40:46;8.30;99.90
18880;DHT22;9572;52.378;13.404;2024-03-29T00:43:12;8.20;99.90
18880;DHT22;9572;52.378;13.404;2024-03-29T00:45:38;8.20;99.90
18880;DHT22;9572;52.378;13.404;2024-03-29T00:48:06;8.00;99.90
18880;DHT22;9572;52.378;13.404;2024-03-29T00:50:32;8.10;99.90
18880;DHT22;9572;52.378;13.404;2024-03-29T00:52:57;8.10;99.90
18880;DHT22;9572;52.378;13.404;2024-03-29T00:55:23;8.00;99.90
18880;DHT22;9572;52.378;13.404;2024-03-29T00:57:49;7.80;99.90
18880;DHT22;9572;52.378;13.404;2024-03-29T01:00:15;7.70;99.90
18880;DHT22;9572;52.378;13.404;2024-03-29T01:02:41;7.60;99.90
18880;DHT22;9572;52.378;13.404;2024-03-29T01:05:08;7.60;99.90
18880;DHT22;9572;52.378;13.404;2024-03-29T01:07:34;7.60;99.90
18880;DHT22;9572;52.378;13.404;2024-03-29T01:10:00;7.60;99.90
18880;DHT22;9572;52.378;13.404;2024-03-29T01:12:26;7.80;99.90
18880;DHT22;9572;52.378;13.404;2024-03-29T01:14:52;7.90;99.90
18880;DHT22;9572;52.378;13.404;2024-03-29T01:17:18;7.80;99.90
18880;DHT22;9572;52.378;13.404;2024-03-29T01:19:43;7.60;99.90
18880;DHT22;9572;52.378;13.404;2024-03-29T01:22:11;7.50;99.90
18880;DHT22;9572;52.378;13.404;2024-03-29T01:24:36;7.50;99.90
18880;DHT22;9572;52.378;13.404;2024-03-29T01:27:03;7.40;99.90
18880;DHT22;9572;52.378;13.404;2024-03-29T01:29:28;7.50;99.90
18880;DHT22;9572;52.378;13.404;2024-03-29T01:31:54;7.70;99.90
18880;DHT22;9572;52.378;13.404;2024-03-29T01:34:20;7.80;99.90
18880;DHT22;9572;52.378;13.404;2024-03-29T01:36:46;7.80;99.90
18880;DHT22;9572;52.378;13.404;2024-03-29T01:39:13;7.80;99.90
18880;DHT22;9572;52.378;13.404;2024-03-29T01:41:39;7.70;99.90
18880;DHT22;9572;52.378;13.404;2024-03-29T01:44:05;7.60;99.90
18880;DHT22;9572;52.378;13.404;2024-03-29T01:46:35;7.50;99.90
18880;DHT22;9572;52.378;13.404;2024-03-29T01:49:03;7.40;99.90
18880;DHT22;9572;52.378;13.404;2024-03-29T01:51:31;7.30;99.90
18880;DHT22;9572;52.378;13.404;2024-03-29T01:53:58;7.20;99.90
18880;DHT22;9572;52.378;13.404;2024-03-29T01:56:27;7.30;99.90
18880;DHT22;9572;52.378;13.404;2024-03-29T01:58:55;7.40;99.90
18880;DHT22;9572;52.378;13.404;2024-03-29T02:01:24;7.40;99.90
18880;DHT22;9572;52.378;13.404;2024-03-29T02:03:52;7.30;99.90
18880;DHT22;9572;52.378;13.404;2024-03-29T02:06:20;7.30;99.90
18880;DHT22;9572;52.378;13.404;2024-03-29T02:12:10;7.30;99.90
18880;DHT22;9572;52.378;13.404;2024-03-29T02:14:37;7.40;99.90
18880;DHT22;9572;52.378;13.404;2024-03-29T02:17:05;7.40;99.90
18880;DHT22;9572;52.378;13.404;2024-03-29T02:19:31;7.40;99.90
18880;DHT22;9572;52.378;13.404;2024-03-29T02:21:59;7.30;99.90
18880;DHT22;9572;52.378;13.404;2024-03-29T02:24:28;7.20;99.90
18880;DHT22;9572;52.378;13.404;2024-03-29T02:26:56;7.20;99.90
18880;DHT22;9572;52.378;13.404;2024-03-29T02:29:23;7.20;99.90
18880;DHT22;9572;52.378;13.404;2024-03-29T02:31:50;7.10;99.90
18880;DHT22;9572;52.378;13.404;2024-03-29T02:34:16;7.00;99.90
18880;DHT22;9572;52.378;13.404;2024-03-29T02:36:44;6.80;99.90
18880;DHT22;9572;52.378;13.404;2024-03-29T02:39:11;6.70;99.90
18880;DHT22;9572;52.378;13.404;2024-03-29T02:41:39;6.80;99.90
18880;DHT22;9572;52.378;13.404;2024-03-29T02:44:05;6.70;99.90
18880;DHT22;9572;52.378;13.404;2024-03-29T02:46:32;6.80;99.90
18880;DHT22;9572;52.378;13.404;2024-03-29T02:48:59;6.70;99.90
18880;DHT22;9572;52.378;13.404;2024-03-29T02:51:24;6.70;99.90
18880;DHT22;9572;52.378;13.404;2024-03-29T02:53:51;6.60;99.90
18880;DHT22;9572;52.378;13.404;2024-03-29T02:56:18;6.50;99.90
18880;DHT22;9572;52.378;13.404;2024-03-29T02:58:48;6.40;99.90
18880;DHT22;9572;52.378;13.404;2024-03-29T03:01:14;6.30;99.90
18880;DHT22;9572;52.378;13.404;2024-03-29T03:03:40;6.20;99.90
18880;DHT22;9572;52.378;13.404;2024-03-29T03:06:07;6.20;99.90
18880;DHT22;9572;52.378;13.404;2024-03-29T03:08:33;6.10;99.90
18880;DHT22;9572;52.378;13.404;2024-03-29T03:11:17;6.10;99.90
18880;DHT22;9572;52.378;13.404;2024-03-29T03:13:43;6.00;99.90
18880;DHT22;9572;52.378;13.404;2024-03-29T03:16:12;5.90;99.90
18880;DHT22;9572;52.378;13.404;2024-03-29T03:18:39;5.90;99.90
18880;DHT22;9572;52.378;13.404;2024-03-29T03:21:06;5.90;99.90
18880;DHT22;9572;52.378;13.404;2024-03-29T03:23:31;5.90;99.90
18880;DHT22;9572;52.378;13.404;2024-03-29T03:25:59;5.90;99.90
18880;DHT22;9572;52.378;13.404;2024-03-29T03:28:26;5.90;99.90
18880;DHT22;9572;52.378;13.404;2024-03-29T03:30:53;5.90;99.90
18880;DHT22;9572;52.378;13.404;2024-03-29T03:33:20;5.90;99.90
18880;DHT22;9572;52.378;13.404;2024-03-29T03:35:47;5.80;99.90
18880;DHT22;9572;52.378;13.404;2024-03-29T03:38:13;5.80;99.90
18880;DHT22;9572;52.378;13.404;2024-03-29T03:40:40;5.80;99.90
18880;DHT22;9572;52.378;13.404;2024-03-29T03:43:07;5.90;99.90
18880;DHT22;9572;52.378;13.404;2024-03-29T03:45:34;5.90;99.90
18880;DHT22;9572;52.378;13.404;2024-03-29T03:48:01;5.80;99.90
18880;DHT22;9572;52.378;13.404;2024-03-29T03:50:29;5.90;99.90
18880;DHT22;9572;52.378;13.404;2024-03-29T03:52:55;5.90;99.90
18880;DHT22;9572;52.378;13.404;2024-03-29T03:55:22;5.90;99.90
18880;DHT22;9572;52.378;13.404;2024-03-29T03:57:47;5.80;99.90
18880;DHT22;9572;52.378;13.404;2024-03-29T04:00:15;5.70;99.90
18880;DHT22;9572;52.378;13.404;2024-03-29T04:02:40;5.80;99.90
18880;DHT22;9572;52.378;13.404;2024-03-29T04:05:08;5.70;99.90
18880;DHT22;9572;52.378;13.404;2024-03-29T04:07:35;5.60;99.90
18880;DHT22;9572;52.378;13.404;2024-03-29T04:10:02;5.70;99.90
18880;DHT22;9572;52.378;13.404;2024-03-29T04:12:29;5.80;99.90
18880;DHT22;9572;52.378;13.404;2024-03-29T04:14:55;5.80;99.90
18880;DHT22;9572;52.378;13.404;2024-03-29T04:17:23;5.90;99.90
18880;DHT22;9572;52.378;13.404;2024-03-29T04:19:49;5.80;99.90
18880;DHT22;9572;52.378;13.404;2024-03-29T04:22:15;5.80;99.90
18880;DHT22;9572;52.378;13.404;2024-03-29T04:24:43;5.70;99.90
18880;DHT22;9572;52.378;13.404;2024-03-29T04:27:10;5.60;99.90
18880;DHT22;9572;52.378;13.404;2024-03-29T04:29:36;5.60;99.90
18880;DHT22;9572;52.378;13.404;2024-03-29T04:32:03;5.60;99.90
18880;DHT22;9572;52.378;13.404;2024-03-29T04:34:29;5.60;99.90
18880;DHT22;9572;52.378;13.404;2024-03-29T04:36:55;5.50;99.90
18880;DHT22;9572;52.378;13.404;2024-03-29T04:39:22;5.60;99.90
18880;DHT22;9572;52.378;13.404;2024-03-29T04:41:50;5.60;99.90
18880;DHT22;9572;52.378;13.404;2024-03-29T04:44:23;5.60;99.90
18880;DHT22;9572;52.378;13.404;2024-03-29T04:46:51;5.60;99.90
18880;DHT22;9572;52.378;13.404;2024-03-29T04:49:18;5.60;99.90
18880;DHT22;9572;52.378;13.404;2024-03-29T04:51:48;5.60;99.90
18880;DHT22;9572;52.378;13.404;2024-03-29T04:54:15;5.70;99.90
18880;DHT22;9572;52.378;13.404;2024-03-29T04:56:42;5.70;99.90
18880;DHT22;9572;52.378;13.404;2024-03-29T04:59:10;5.70;99.90
18880;DHT22;9572;52.378;13.404;2024-03-29T05:01:37;5.80;99.90
18880;DHT22;9572;52.378;13.404;2024-03-29T05:04:04;5.80;99.90
18880;DHT22;9572;52.378;13.404;2024-03-29T05:06:31;5.80;99.90
18880;DHT22;9572;52.378;13.404;2024-03-29T05:08:58;5.80;99.90
18880;DHT22;9572;52.378;13.404;2024-03-29T05:11:25;5.80;99.90
18880;DHT22;9572;52.378;13.404;2024-03-29T05:13:51;5.80;99.90
18880;DHT22;9572;52.378;13.404;2024-03-29T05:16:19;5.90;99.90
18880;DHT22;9572;52.378;13.404;2024-03-29T05:18:47;6.00;99.90
18880;DHT22;9572;52.378;13.404;2024-03-29T05:21:14;6.00;99.90
18880;DHT22;9572;52.378;13.404;2024-03-29T05:23:40;6.10;99.90
18880;DHT22;9572;52.378;13.404;2024-03-29T05:26:07;6.10;99.90
18880;DHT22;9572;52.378;13.404;2024-03-29T05:28:34;6.10;99.90
18880;DHT22;9572;52.378;13.404;2024-03-29T05:31:11;6.10;99.90
18880;DHT22;9572;52.378;13.404;2024-03-29T05:33:40;6.10;99.90
18880;DHT22;9572;52.378;13.404;2024-03-29T05:36:07;6.20;99.90
18880;DHT22;9572;52.378;13.404;2024-03-29T05:38:36;6.20;99.90
18880;DHT22;9572;52.378;13.404;2024-03-29T05:41:03;6.20;99.90
18880;DHT22;9572;52.378;13.404;2024-03-29T05:43:29;6.20;99.90
18880;DHT22;9572;52.378;13.404;2024-03-29T05:45:56;6.20;99.90
18880;DHT22;9572;52.378;13.404;2024-03-29T05:48:22;6.30;99.90
18880;DHT22;9572;52.378;13.404;2024-03-29T05:50:50;6.30;99.90
18880;DHT22;9572;52.378;13.404;2024-03-29T05:53:17;6.40;99.90
18880;DHT22;9572;52.378;13.404;2024-03-29T05:55:43;6.50;99.90
18880;DHT22;9572;52.378;13.404;2024-03-29T05:58:10;6.50;99.90
18880;DHT22;9572;52.378;13.404;2024-03-29T06:00:42;6.50;99.90
18880;DHT22;9572;52.378;13.404;2024-03-29T06:03:09;6.60;99.90
18880;DHT22;9572;52.378;13.404;2024-03-29T06:05:36;6.60;99.90
18880;DHT22;9572;52.378;13.404;2024-03-29T06:08:04;6.70;99.90
18880;DHT22;9572;52.378;13.404;2024-03-29T06:10:31;6.70;99.90
18880;DHT22;9572;52.378;13.404;2024-03-29T06:12:58;6.80;99.90
18880;DHT22;9572;52.378;13.404;2024-03-29T06:15:32;6.80;99.90
18880;DHT22;9572;52.378;13.404;2024-03-29T06:18:16;6.90;99.90
18880;DHT22;9572;52.378;13.404;2024-03-29T06:20:44;7.00;99.90
18880;DHT22;9572;52.378;13.404;2024-03-29T06:23:12;7.10;99.90
18880;DHT22;9572;52.378;13.404;2024-03-29T06:25:40;7.20;99.90
18880;DHT22;9572;52.378;13.404;2024-03-29T06:28:06;7.20;99.90
18880;DHT22;9572;52.378;13.404;2024-03-29T06:30:33;7.30;99.90
18880;DHT22;9572;52.378;13.404;2024-03-29T06:33:00;7.40;99.90
18880;DHT22;9572;52.378;13.404;2024-03-29T06:35:28;7.50;99.90
18880;DHT22;9572;52.378;13.404;2024-03-29T06:37:56;7.60;99.90
18880;DHT22;9572;52.378;13.404;2024-03-29T06:40:24;7.70;99.90
18880;DHT22;9572;52.378;13.404;2024-03-29T06:42:51;7.80;99.90
18880;DHT22;9572;52.378;13.404;2024-03-29T06:45:18;7.90;99.90
18880;DHT22;9572;52.378;13.404;2024-03-29T06:47:45;7.90;99.90
18880;DHT22;9572;52.378;13.404;2024-03-29T06:50:12;8.00;99.90
18880;DHT22;9572;52.378;13.404;2024-03-29T06:52:38;8.10;99.90
18880;DHT22;9572;52.378;13.404;2024-03-29T06:55:06;8.20;99.90
18880;DHT22;9572;52.378;13.404;2024-03-29T06:57:34;8.40;99.90
18880;DHT22;9572;52.378;13.404;2024-03-29T07:00:01;8.50;99.90
18880;DHT22;9572;52.378;13.404;2024-03-29T07:02:29;8.60;99.90
18880;DHT22;9572;52.378;13.404;2024-03-29T07:04:55;8.80;99.90
18880;DHT22;9572;52.378;13.404;2024-03-29T07:07:22;8.90;99.90
18880;DHT22;9572;52.378;13.404;2024-03-29T07:09:49;9.00;99.90
18880;DHT22;9572;52.378;13.404;2024-03-29T07:12:16;9.00;99.90
18880;DHT22;9572;52.378;13.404;2024-03-29T07:14:44;9.00;99.90
18880;DHT22;9572;52.378;13.404;2024-03-29T07:17:11;9.00;99.90
18880;DHT22;9572;52.378;13.404;2024-03-29T07:19:38;9.10;99.90
18880;DHT22;9572;52.378;13.404;2024-03-29T07:22:04;9.10;99.90
18880;DHT22;9572;52.378;13.404;2024-03-29T07:24:31;9.10;99.90
18880;DHT22;9572;52.378;13.404;2024-03-29T07:26:58;9.20;99.90
18880;DHT22;9572;52.378;13.404;2024-03-29T07:29:24;9.30;99.90
18880;DHT22;9572;52.378;13.404;2024-03-29T07:31:53;9.30;99.90
18880;DHT22;9572;52.378;13.404;2024-03-29T07:34:19;9.30;99.90
18880;DHT22;9572;52.378;13.404;2024-03-29T07:36:46;9.40;99.90
18880;DHT22;9572;52.378;13.404;2024-03-29T07:39:13;9.40;99.90
18880;DHT22;9572;52.378;13.404;2024-03-29T07:41:40;9.50;99.90
18880;DHT22;9572;52.378;13.404;2024-03-29T07:44:07;9.60;99.90
18880;DHT22;9572;52.378;13.404;2024-03-29T07:46:35;9.70;99.90
18880;DHT22;9572;52.378;13.404;2024-03-29T07:49:03;9.80;99.90
18880;DHT22;9572;52.378;13.404;2024-03-29T07:51:30;9.80;99.90
18880;DHT22;9572;52.378;13.404;2024-03-29T07:53:57;9.90;99.90
18880;DHT22;9572;52.378;13.404;2024-03-29T07:56:24;9.90;99.90
18880;DHT22;9572;52.378;13.404;2024-03-29T07:58:51;9.80;99.90
18880;DHT22;9572;52.378;13.404;2024-03-29T08:01:19;9.90;99.90
18880;DHT22;9572;52.378;13.404;2024-03-29T08:03:46;9.90;99.90
18880;DHT22;9572;52.378;13.404;2024-03-29T08:06:15;9.90;99.90
18880;DHT22;9572;52.378;13.404;2024-03-29T08:08:43;9.90;99.90
18880;DHT22;9572;52.378;13.404;2024-03-29T08:11:10;9.90;99.90
18880;DHT22;9572;52.378;13.404;2024-03-29T08:13:38;9.80;99.90
18880;DHT22;9572;52.378;13.404;2024-03-29T08:16:05;9.80;99.90
18880;DHT22;9572;52.378;13.404;2024-03-29T08:18:32;9.90;99.90
18880;DHT22;9572;52.378;13.404;2024-03-29T08:20:59;9.80;99.90
18880;DHT22;9572;52.378;13.404;2024-03-29T08:23:27;9.80;99.90
18880;DHT22;9572;52.378;13.404;2024-03-29T08:25:54;9.80;99.90
18880;DHT22;9572;52.378;13.404;2024-03-29T08:28:21;9.80;99.90
18880;DHT22;9572;52.378;13.404;2024-03-29T08:30:57;9.90;99.90
18880;DHT22;9572;52.378;13.404;2024-03-29T08:33:25;9.90;99.90
18880;DHT22;9572;52.378;13.404;2024-03-29T08:35:52;10.00;99.90
18880;DHT22;9572;52.378;13.404;2024-03-29T08:38:18;10.10;99.90
18880;DHT22;9572;52.378;13.404;2024-03-29T08:40:46;10.30;99.90
18880;DHT22;9572;52.378;13.404;2024-03-29T08:43:13;10.40;99.90
18880;DHT22;9572;52.378;13.404;2024-03-29T08:45:41;10.60;99.90
18880;DHT22;9572;52.378;13.404;2024-03-29T08:48:08;10.60;99.90
18880;DHT22;9572;52.378;13.404;2024-03-29T08:50:35;10.80;99.90
18880;DHT22;9572;52.378;13.404;2024-03-29T08:53:02;10.90;99.90
18880;DHT22;9572;52.378;13.404;2024-03-29T08:55:29;10.90;99.90
18880;DHT22;9572;52.378;13.404;2024-03-29T08:57:57;11.00;99.90
18880;DHT22;9572;52.378;13.404;2024-03-29T09:00:24;11.10;99.90
18880;DHT22;9572;52.378;13.404;2024-03-29T09:02:51;11.10;99.90
18880;DHT22;9572;52.378;13.404;2024-03-29T09:05:18;11.20;99.90
18880;DHT22;9572;52.378;13.404;2024-03-29T09:07:45;11.30;99.90
18880;DHT22;9572;52.378;13.404;2024-03-29T09:10:12;11.40;99.90
18880;DHT22;9572;52.378;13.404;2024-03-29T09:12:39;11.50;99.90
18880;DHT22;9572;52.378;13.404;2024-03-29T09:15:07;11.50;99.90
18880;DHT22;9572;52.378;13.404;2024-03-29T09:17:38;11.60;99.90
18880;DHT22;9572;52.378;13.404;2024-03-29T09:20:06;11.70;99.90
18880;DHT22;9572;52.378;13.404;2024-03-29T09:22:34;11.80;99.90
18880;DHT22;9572;52.378;13.404;2024-03-29T09:25:01;11.80;99.90
18880;DHT22;9572;52.378;13.404;2024-03-29T09:27:28;12.00;99.90
18880;DHT22;9572;52.378;13.404;2024-03-29T09:29:55;12.10;99.90
18880;DHT22;9572;52.378;13.404;2024-03-29T09:32:23;12.10;99.90
18880;DHT22;9572;52.378;13.404;2024-03-29T09:34:50;12.30;99.90
18880;DHT22;9572;52.378;13.404;2024-03-29T09:37:17;12.30;99.90
18880;DHT22;9572;52.378;13.404;2024-03-29T09:39:45;12.40;99.90
18880;DHT22;9572;52.378;13.404;2024-03-29T09:42:16;12.60;99.90
18880;DHT22;9572;52.378;13.404;2024-03-29T09:44:44;12.60;99.90
18880;DHT22;9572;52.378;13.404;2024-03-29T09:47:16;12.50;99.90
18880;DHT22;9572;52.378;13.404;2024-03-29T09:49:47;12.50;99.90
18880;DHT22;9572;52.378;13.404;2024-03-29T09:52:16;12.50;99.90
18880;DHT22;9572;52.378;13.404;2024-03-29T09:54:43;12.50;99.90
18880;DHT22;9572;52.378;13.404;2024-03-29T09:57:10;12.60;99.90
18880;DHT22;9572;52.378;13.404;2024-03-29T09:59:38;12.60;99.90
18880;DHT22;9572;52.378;13.404;2024-03-29T10:02:14;12.80;99.90
18880;DHT22;9572;52.378;13.404;2024-03-29T10:04:41;12.70;99.90
18880;DHT22;9572;52.378;13.404;2024-03-29T10:07:10;12.80;99.90
18880;DHT22;9572;52.378;13.404;2024-03-29T10:09:37;12.70;99.90
18880;DHT22;9572;52.378;13.404;2024-03-29T10:12:06;12.70;99.90
18880;DHT22;9572;52.378;13.404;2024-03-29T10:14:43;12.70;99.90
18880;DHT22;9572;52.378;13.404;2024-03-29T10:17:15;12.70;99.90
18880;DHT22;9572;52.378;13.404;2024-03-29T10:19:42;12.50;99.90
18880;DHT22;9572;52.378;13.404;2024-03-29T10:22:10;12.40;99.90
18880;DHT22;9572;52.378;13.404;2024-03-29T10:24:37;12.30;99.90
18880;DHT22;9572;52.378;13.404;2024-03-29T10:27:04;12.10;99.90
18880;DHT22;9572;52.378;13.404;2024-03-29T10:29:31;12.10;99.90
18880;DHT22;9572;52.378;13.404;2024-03-29T10:31:58;12.00;99.90
18880;DHT22;9572;52.378;13.404;2024-03-29T10:34:25;11.90;99.90
18880;DHT22;9572;52.378;13.404;2024-03-29T10:36:51;11.80;99.90
18880;DHT22;9572;52.378;13.404;2024-03-29T10:39:20;11.90;99.90
18880;DHT22;9572;52.378;13.404;2024-03-29T10:41:47;11.90;99.90
18880;DHT22;9572;52.378;13.404;2024-03-29T10:44:16;11.80;99.90
18880;DHT22;9572;52.378;13.404;2024-03-29T10:46:45;11.80;99.90
18880;DHT22;9572;52.378;13.404;2024-03-29T10:49:15;11.70;99.90
18880;DHT22;9572;52.378;13.404;2024-03-29T10:51:42;11.80;99.90
18880;DHT22;9572;52.378;13.404;2024-03-29T10:54:10;11.80;99.90
18880;DHT22;9572;52.378;13.404;2024-03-29T10:56:40;11.90;99.90
18880;DHT22;9572;52.378;13.404;2024-03-29T10:59:16;12.00;99.90
18880;DHT22;9572;52.378;13.404;2024-03-29T11:01:51;12.40;99.90
18880;DHT22;9572;52.378;13.404;2024-03-29T11:04:22;13.20;99.90
18880;DHT22;9572;52.378;13.404;2024-03-29T11:06:54;14.00;99.90
18880;DHT22;9572;52.378;13.404;2024-03-29T11:09:26;14.60;99.90
18880;DHT22;9572;52.378;13.404;2024-03-29T11:11:56;14.80;99.90
18880;DHT22;9572;52.378;13.404;2024-03-29T11:14:29;14.90;99.90
18880;DHT22;9572;52.378;13.404;2024-03-29T11:16:56;15.20;99.90
18880;DHT22;9572;52.378;13.404;2024-03-29T11:19:24;15.00;99.90
18880;DHT22;9572;52.378;13.404;2024-03-29T11:21:52;14.70;99.90
18880;DHT22;9572;52.378;13.404;2024-03-29T11:24:22;14.50;99.90
18880;DHT22;9572;52.378;13.404;2024-03-29T11:26:49;14.40;99.90
18880;DHT22;9572;52.378;13.404;2024-03-29T11:29:22;14.20;99.90
18880;DHT22;9572;52.378;13.404;2024-03-29T11:31:56;14.00;99.90
18880;DHT22;9572;52.378;13.404;2024-03-29T11:34:23;13.80;99.90
18880;DHT22;9572;52.378;13.404;2024-03-29T11:36:49;13.80;99.90
18880;DHT22;9572;52.378;13.404;2024-03-29T11:39:20;13.80;99.90
18880;DHT22;9572;52.378;13.404;2024-03-29T11:41:47;13.80;99.90
18880;DHT22;9572;52.378;13.404;2024-03-29T11:44:14;13.80;99.90
18880;DHT22;9572;52.378;13.404;2024-03-29T11:46:42;13.50;99.90
18880;DHT22;9572;52.378;13.404;2024-03-29T11:49:10;13.40;99.90
18880;DHT22;9572;52.378;13.404;2024-03-29T11:51:37;13.40;99.90
18880;DHT22;9572;52.378;13.404;2024-03-29T11:54:03;13.50;99.90
18880;DHT22;9572;52.378;13.404;2024-03-29T11:56:30;13.40;99.90
18880;DHT22;9572;52.378;13.404;2024-03-29T11:58:57;13.40;99.90
18880;DHT22;9572;52.378;13.404;2024-03-29T12:01:26;13.50;99.90
18880;DHT22;9572;52.378;13.404;2024-03-29T12:03:56;13.50;99.90
18880;DHT22;9572;52.378;13.404;2024-03-29T12:06:22;13.60;99.90
18880;DHT22;9572;52.378;13.404;2024-03-29T12:08:49;13.50;99.90
18880;DHT22;9572;52.378;13.404;2024-03-29T12:11:18;13.60;99.90
18880;DHT22;9572;52.378;13.404;2024-03-29T12:13:45;13.40;99.90
18880;DHT22;9572;52.378;13.404;2024-03-29T12:16:12;13.30;99.90
18880;DHT22;9572;52.378;13.404;2024-03-29T12:18:39;13.40;99.90
18880;DHT22;9572;52.378;13.404;2024-03-29T12:21:07;13.50;99.90
18880;DHT22;9572;52.378;13.404;2024-03-29T12:23:35;13.70;99.90
18880;DHT22;9572;52.378;13.404;2024-03-29T12:26:02;13.70;99.90
18880;DHT22;9572;52.378;13.404;2024-03-29T12:28:29;13.80;99.90
18880;DHT22;9572;52.378;13.404;2024-03-29T12:30:59;14.00;99.90
18880;DHT22;9572;52.378;13.404;2024-03-29T12:33:26;14.20;99.90
18880;DHT22;9572;52.378;13.404;2024-03-29T12:35:54;14.30;99.90
18880;DHT22;9572;52.378;13.404;2024-03-29T12:38:23;14.30;99.90
18880;DHT22;9572;52.378;13.404;2024-03-29T12:40:51;14.40;99.90
18880;DHT22;9572;52.378;13.404;2024-03-29T12:43:22;14.60;99.90
18880;DHT22;9572;52.378;13.404;2024-03-29T12:45:50;14.60;99.90
18880;DHT22;9572;52.378;13.404;2024-03-29T12:48:19;14.70;99.90
18880;DHT22;9572;52.378;13.404;2024-03-29T12:50:47;14.90;99.90
18880;DHT22;9572;52.378;13.404;2024-03-29T12:53:14;15.20;99.90
18880;DHT22;9572;52.378;13.404;2024-03-29T12:55:44;15.40;99.90
18880;DHT22;9572;52.378;13.404;2024-03-29T12:58:12;15.60;99.90
18880;DHT22;9572;52.378;13.404;2024-03-29T13:00:40;15.70;99.90
18880;DHT22;9572;52.378;13.404;2024-03-29T13:03:07;15.60;99.90
18880;DHT22;9572;52.378;13.404;2024-03-29T13:05:35;15.60;99.90
18880;DHT22;9572;52.378;13.404;2024-03-29T13:08:06;15.70;99.90
18880;DHT22;9572;52.378;13.404;2024-03-29T13:10:34;15.70;99.90
18880;DHT22;9572;52.378;13.404;2024-03-29T13:13:03;15.60;99.90
18880;DHT22;9572;52.378;13.404;2024-03-29T13:15:33;15.50;99.90
18880;DHT22;9572;52.378;13.404;2024-03-29T13:18:01;15.40;99.90
18880;DHT22;9572;52.378;13.404;2024-03-29T13:20:29;15.30;99.90
18880;DHT22;9572;52.378;13.404;2024-03-29T13:22:57;15.30;99.90
18880;DHT22;9572;52.378;13.404;2024-03-29T13:25:24;15.20;99.90
18880;DHT22;9572;52.378;13.404;2024-03-29T13:27:52;15.20;99.90
18880;DHT22;9572;52.378;13.404;2024-03-29T13:30:24;15.20;99.90
18880;DHT22;9572;52.378;13.404;2024-03-29T13:32:51;15.30;99.90
18880;DHT22;9572;52.378;13.404;2024-03-29T13:35:19;15.30;99.90
18880;DHT22;9572;52.378;13.404;2024-03-29T13:37:47;15.40;99.90
18880;DHT22;9572;52.378;13.404;2024-03-29T13:40:15;15.50;99.90
18880;DHT22;9572;52.378;13.404;2024-03-29T13:42:43;15.60;99.90
18880;DHT22;9572;52.378;13.404;2024-03-29T13:45:10;15.60;99.90
18880;DHT22;9572;52.378;13.404;2024-03-29T13:47:39;15.80;99.90
18880;DHT22;9572;52.378;13.404;2024-03-29T13:50:07;15.80;99.90
18880;DHT22;9572;52.378;13.404;2024-03-29T13:52:34;15.90;99.90
18880;DHT22;9572;52.378;13.404;2024-03-29T13:55:01;15.90;99.90
18880;DHT22;9572;52.378;13.404;2024-03-29T13:57:29;15.90;99.90
18880;DHT22;9572;52.378;13.404;2024-03-29T13:59:56;15.90;99.90
18880;DHT22;9572;52.378;13.404;2024-03-29T14:02:24;15.90;99.90
18880;DHT22;9572;52.378;13.404;2024-03-29T14:04:54;16.00;99.90
18880;DHT22;9572;52.378;13.404;2024-03-29T14:07:21;16.00;99.90
18880;DHT22;9572;52.378;13.404;2024-03-29T14:09:50;16.30;99.90
18880;DHT22;9572;52.378;13.404;2024-03-29T14:12:17;16.70;99.90
18880;DHT22;9572;52.378;13.404;2024-03-29T14:14:46;16.90;99.90
18880;DHT22;9572;52.378;13.404;2024-03-29T14:17:16;16.90;99.90
18880;DHT22;9572;52.378;13.404;2024-03-29T14:19:43;17.00;99.90
18880;DHT22;9572;52.378;13.404;2024-03-29T14:22:11;17.00;99.90
18880;DHT22;9572;52.378;13.404;2024-03-29T14:24:41;17.00;99.90
18880;DHT22;9572;52.378;13.404;2024-03-29T14:27:08;17.00;99.90
18880;DHT22;9572;52.378;13.404;2024-03-29T14:29:35;17.10;99.90
18880;DHT22;9572;52.378;13.404;2024-03-29T14:32:02;17.00;99.90
18880;DHT22;9572;52.378;13.404;2024-03-29T14:34:29;16.80;99.90
18880;DHT22;9572;52.378;13.404;2024-03-29T14:36:57;17.10;99.90
18880;DHT22;9572;52.378;13.404;2024-03-29T14:39:25;17.40;99.90
18880;DHT22;9572;52.378;13.404;2024-03-29T14:41:53;17.50;99.90
18880;DHT22;9572;52.378;13.404;2024-03-29T14:44:21;17.70;99.90
18880;DHT22;9572;52.378;13.404;2024-03-29T14:46:47;17.50;99.90
18880;DHT22;9572;52.378;13.404;2024-03-29T14:49:14;17.30;99.90
18880;DHT22;9572;52.378;13.404;2024-03-29T14:51:43;17.30;99.90
18880;DHT22;9572;52.378;13.404;2024-03-29T14:54:10;17.10;99.90
18880;DHT22;9572;52.378;13.404;2024-03-29T14:56:38;17.10;99.90
18880;DHT22;9572;52.378;13.404;2024-03-29T14:59:06;17.20;99.90
18880;DHT22;9572;52.378;13.404;2024-03-29T15:01:35;17.10;99.90
18880;DHT22;9572;52.378;13.404;2024-03-29T15:04:02;16.80;99.90
18880;DHT22;9572;52.378;13.404;2024-03-29T15:06:28;16.60;99.90
18880;DHT22;9572;52.378;13.404;2024-03-29T15:08:56;16.50;99.90
18880;DHT22;9572;52.378;13.404;2024-03-29T15:11:23;16.30;99.90
18880;DHT22;9572;52.378;13.404;2024-03-29T15:13:51;16.20;99.90
18880;DHT22;9572;52.378;13.404;2024-03-29T15:16:18;16.10;99.90
18880;DHT22;9572;52.378;13.404;2024-03-29T15:18:46;16.00;99.90
18880;DHT22;9572;52.378;13.404;2024-03-29T15:21:13;16.00;99.90
18880;DHT22;9572;52.378;13.404;2024-03-29T15:23:40;16.00;99.90
18880;DHT22;9572;52.378;13.404;2024-03-29T15:26:06;15.90;99.90
18880;DHT22;9572;52.378;13.404;2024-03-29T15:28:34;15.80;99.90
18880;DHT22;9572;52.378;13.404;2024-03-29T15:31:20;15.80;99.90
18880;DHT22;9572;52.378;13.404;2024-03-29T15:33:48;15.70;99.90
18880;DHT22;9572;52.378;13.404;2024-03-29T15:36:16;15.60;99.90
18880;DHT22;9572;52.378;13.404;2024-03-29T15:38:43;15.60;99.90
18880;DHT22;9572;52.378;13.404;2024-03-29T15:41:10;15.50;99.90
18880;DHT22;9572;52.378;13.404;2024-03-29T15:43:37;15.60;99.90
18880;DHT22;9572;52.378;13.404;2024-03-29T15:46:05;15.50;99.90